Time;durP1;ratioP1;P1;durP2;ratioP2;P2;SDS_P1;SDS_P2;PMS_P1;PMS_P2;Temp;Humidity;BMP_temperature;BMP_pressure;BME280_temperature;BME280_humidity;BME280_pressure;Samples;Min_cycle;Max_cycle;Signal;HPM_P1;HPM_P2
2022/03/20 00:00:04;;;;;;;;;;;7.30;99.90;;;;;;5117988;28;19924;-87
2022/03/20 00:02:33;;;;;;;;;;;7.30;99.90;;;;;;5116488;28;19977;-87
2022/03/20 00:05:00;;;;;;;;;;;7.20;99.90;;;;;;5116478;28;19928;-87
2022/03/20 00:07:29;;;;;;;;;;;7.20;99.90;;;;;;5118901;28;19928;-85
2022/03/20 00:09:56;;;;;;;;;;;7.20;99.90;;;;;;5117247;28;19940;-88
2022/03/20 00:12:22;;;;;;;;;;;8.90;99.90;;;;;;5117836;28;19945;-88
2022/03/20 00:14:49;;;;;;;;;;;7.20;99.90;;;;;;5117397;28;19927;-88
2022/03/20 00:17:17;;;;;;;;;;;7.20;99.90;;;;;;5117417;28;19987;-89
2022/03/20 00:19:44;;;;;;;;;;;7.20;99.90;;;;;;5115880;28;19976;-87
2022/03/20 00:22:12;;;;;;;;;;;7.20;99.90;;;;;;5116824;28;19963;-88
2022/03/20 00:24:41;;;;;;;;;;;7.20;99.90;;;;;;5116666;28;20034;-90
2022/03/20 00:27:08;;;;;;;;;;;7.10;99.90;;;;;;5116706;28;19924;-88
2022/03/20 00:29:35;;;;;;;;;;;7.10;99.90;;;;;;5116316;28;20342;-88
2022/03/20 00:32:02;;;;;;;;;;;7.40;99.90;;;;;;5116467;28;19953;-88
2022/03/20 00:34:29;;;;;;;;;;;7.10;99.90;;;;;;5116101;28;19924;-89
2022/03/20 00:36:56;;;;;;;;;;;7.00;99.90;;;;;;5116064;28;19969;-86
2022/03/20 00:39:22;;;;;;;;;;;7.00;99.90;;;;;;5116454;28;20749;-85
2022/03/20 00:41:50;;;;;;;;;;;6.10;99.90;;;;;;5116017;28;20320;-89
2022/03/20 00:44:18;;;;;;;;;;;8.50;99.90;;;;;;5116274;28;19924;-89
2022/03/20 00:46:45;;;;;;;;;;;7.00;99.90;;;;;;5115724;28;19923;-88
2022/03/20 00:49:12;;;;;;;;;;;6.90;99.90;;;;;;5115855;28;19977;-87
2022/03/20 00:51:39;;;;;;;;;;;6.90;99.90;;;;;;5117067;28;19924;-87
2022/03/20 00:54:05;;;;;;;;;;;6.90;99.90;;;;;;5116320;28;19946;-89
2022/03/20 00:56:32;;;;;;;;;;;6.90;99.90;;;;;;5116626;28;19930;-88
2022/03/20 00:59:01;;;;;;;;;;;6.90;99.90;;;;;;5115827;28;20086;-87
2022/03/20 01:01:28;;;;;;;;;;;6.90;99.90;;;;;;5116394;28;20274;-87
2022/03/20 01:03:55;;;;;;;;;;;6.80;99.90;;;;;;5116352;28;20380;-89
2022/03/20 01:06:22;;;;;;;;;;;6.90;99.90;;;;;;5115634;28;19924;-88
2022/03/20 01:08:49;;;;;;;;;;;6.90;99.90;;;;;;5117516;28;20340;-89
2022/03/20 01:11:17;;;;;;;;;;;6.90;99.90;;;;;;5119778;28;19985;-88
2022/03/20 01:13:44;;;;;;;;;;;6.70;99.90;;;;;;5119608;28;20362;-88
2022/03/20 01:16:12;;;;;;;;;;;6.60;99.90;;;;;;5119316;28;19969;-88
2022/03/20 01:18:41;;;;;;;;;;;6.70;99.90;;;;;;5119176;28;19947;-88
2022/03/20 01:21:08;;;;;;;;;;;6.80;99.90;;;;;;5119532;28;19924;-89
2022/03/20 01:23:35;;;;;;;;;;;6.50;99.90;;;;;;5119101;28;20027;-88
2022/03/20 01:26:02;;;;;;;;;;;5.40;99.90;;;;;;5119140;28;20453;-87
2022/03/20 01:28:28;;;;;;;;;;;6.70;99.90;;;;;;5119462;28;19923;-89
2022/03/20 01:30:55;;;;;;;;;;;6.50;99.90;;;;;;5119871;28;19924;-88
2022/03/20 01:33:23;;;;;;;;;;;6.50;99.90;;;;;;5119804;28;19923;-88
2022/03/20 01:35:50;;;;;;;;;;;6.70;99.90;;;;;;5119260;28;19973;-86
2022/03/20 01:38:20;;;;;;;;;;;6.70;99.90;;;;;;5119001;28;19949;-88
2022/03/20 01:40:47;;;;;;;;;;;8.20;99.90;;;;;;5119365;28;19946;-88
2022/03/20 01:43:14;;;;;;;;;;;6.80;99.90;;;;;;5119607;28;19923;-88
2022/03/20 01:45:41;;;;;;;;;;;7.30;99.90;;;;;;5119470;28;19927;-89
2022/03/20 01:48:07;;;;;;;;;;;6.70;99.90;;;;;;5118572;28;19949;-89
2022/03/20 01:50:36;;;;;;;;;;;6.70;99.90;;;;;;5118735;28;19924;-87
2022/03/20 01:53:03;;;;;;;;;;;6.60;99.90;;;;;;5118664;28;19989;-87
2022/03/20 01:55:30;;;;;;;;;;;6.50;99.90;;;;;;5118203;28;20398;-88
2022/03/20 01:57:57;;;;;;;;;;;6.50;99.90;;;;;;5118103;28;19953;-86
2022/03/20 02:00:25;;;;;;;;;;;6.40;99.90;;;;;;5118325;28;19970;-88
2022/03/20 02:02:52;;;;;;;;;;;6.40;99.90;;;;;;5117739;28;20438;-88
2022/03/20 02:05:19;;;;;;;;;;;6.30;99.90;;;;;;5118382;28;19962;-88
2022/03/20 02:07:47;;;;;;;;;;;6.30;99.90;;;;;;5117864;28;19923;-88
2022/03/20 02:10:15;;;;;;;;;;;6.30;99.90;;;;;;5117637;28;20018;-88
2022/03/20 02:12:42;;;;;;;;;;;6.30;99.90;;;;;;5117591;28;19924;-88
2022/03/20 02:15:10;;;;;;;;;;;5.80;99.90;;;;;;5118071;28;19931;-88
2022/03/20 02:17:38;;;;;;;;;;;6.30;99.90;;;;;;5116624;28;20263;-88
2022/03/20 02:20:08;;;;;;;;;;;6.30;99.90;;;;;;5118278;28;19969;-88
2022/03/20 02:22:38;;;;;;;;;;;5.20;99.90;;;;;;5118551;28;20351;-89
2022/03/20 02:25:06;;;;;;;;;;;6.20;99.90;;;;;;5117588;28;19927;-88
2022/03/20 02:27:34;;;;;;;;;;;6.20;99.90;;;;;;5117239;28;19923;-87
2022/03/20 02:30:02;;;;;;;;;;;6.10;99.90;;;;;;5117711;28;19928;-89
2022/03/20 02:32:29;;;;;;;;;;;6.10;99.90;;;;;;5117679;28;19969;-87
2022/03/20 02:34:56;;;;;;;;;;;6.10;99.90;;;;;;5117199;28;19924;-88
2022/03/20 02:37:24;;;;;;;;;;;6.10;99.90;;;;;;5117854;28;19927;-87
2022/03/20 02:39:55;;;;;;;;;;;6.10;99.90;;;;;;5124612;28;19928;-85
2022/03/20 02:42:23;;;;;;;;;;;6.10;99.90;;;;;;5126201;28;20263;-84
2022/03/20 02:44:58;;;;;;;;;;;6.30;99.90;;;;;;5119369;28;19939;-89
2022/03/20 02:47:29;;;;;;;;;;;6.00;99.90;;;;;;5117895;28;19924;-89
2022/03/20 02:49:56;;;;;;;;;;;6.00;99.90;;;;;;5117784;28;19924;-91
2022/03/20 02:52:25;;;;;;;;;;;5.90;99.90;;;;;;5117410;28;19946;-88
2022/03/20 02:54:53;;;;;;;;;;;5.70;99.90;;;;;;5117353;28;19927;-88
2022/03/20 02:57:20;;;;;;;;;;;5.70;99.90;;;;;;5117107;28;19975;-87
2022/03/20 02:59:47;;;;;;;;;;;6.20;99.90;;;;;;5117394;28;19977;-87
2022/03/20 03:02:14;;;;;;;;;;;5.30;99.90;;;;;;5116963;28;19924;-86
2022/03/20 03:04:42;;;;;;;;;;;5.30;99.90;;;;;;5117029;28;19928;-87
2022/03/20 03:07:09;;;;;;;;;;;5.20;99.90;;;;;;5116652;28;19971;-89
2022/03/20 03:12:21;;;;;;;;;;;5.30;99.90;;;;;;5117111;28;19930;-87
2022/03/20 03:17:32;;;;;;;;;;;5.00;99.90;;;;;;5116498;28;19969;-87
2022/03/20 03:19:59;;;;;;;;;;;4.90;99.90;;;;;;5117645;28;19974;-85
2022/03/20 03:22:26;;;;;;;;;;;5.10;99.90;;;;;;5117571;28;19930;-86
2022/03/20 03:24:53;;;;;;;;;;;5.30;99.90;;;;;;5118428;28;19979;-86
2022/03/20 03:27:21;;;;;;;;;;;5.30;99.90;;;;;;5117791;28;19928;-87
2022/03/20 03:29:48;;;;;;;;;;;5.30;99.90;;;;;;5116562;28;19946;-88
2022/03/20 03:32:14;;;;;;;;;;;5.50;99.90;;;;;;5116291;28;19970;-87
2022/03/20 03:37:26;;;;;;;;;;;5.60;99.90;;;;;;5116391;28;19930;-85
2022/03/20 03:39:53;;;;;;;;;;;5.60;99.90;;;;;;5115910;28;19923;-90
2022/03/20 03:42:24;;;;;;;;;;;5.60;99.90;;;;;;5116361;28;19984;-87
2022/03/20 03:44:51;;;;;;;;;;;5.60;99.90;;;;;;5116114;28;19981;-89
2022/03/20 03:47:18;;;;;;;;;;;5.50;99.90;;;;;;5116229;28;20367;-89
2022/03/20 03:49:45;;;;;;;;;;;5.40;99.90;;;;;;5116471;28;20428;-88
2022/03/20 03:52:14;;;;;;;;;;;5.40;99.90;;;;;;5116729;28;19923;-88
2022/03/20 03:54:41;;;;;;;;;;;5.40;99.90;;;;;;5116362;28;20485;-89
2022/03/20 03:57:08;;;;;;;;;;;5.40;99.90;;;;;;5116128;28;19923;-88
2022/03/20 03:59:36;;;;;;;;;;;5.40;99.90;;;;;;5116712;28;19924;-89
2022/03/20 04:02:03;;;;;;;;;;;5.40;99.90;;;;;;5115522;28;19924;-89
2022/03/20 04:04:30;;;;;;;;;;;5.80;99.90;;;;;;5116374;28;19947;-88
2022/03/20 04:06:57;;;;;;;;;;;5.40;99.90;;;;;;5116031;28;19979;-91
2022/03/20 04:09:24;;;;;;;;;;;5.20;99.90;;;;;;5115955;28;19924;-88
2022/03/20 04:11:51;;;;;;;;;;;5.10;99.90;;;;;;5115920;28;19980;-88
2022/03/20 04:14:18;;;;;;;;;;;5.00;99.90;;;;;;5116200;28;19924;-87
2022/03/20 04:16:46;;;;;;;;;;;5.20;99.90;;;;;;5115981;28;19977;-87
2022/03/20 04:19:13;;;;;;;;;;;5.20;99.90;;;;;;5116033;28;19923;-87
2022/03/20 04:21:40;;;;;;;;;;;5.30;99.90;;;;;;5116296;28;19927;-87
2022/03/20 04:24:07;;;;;;;;;;;5.50;99.90;;;;;;5115940;28;19969;-87
2022/03/20 04:26:34;;;;;;;;;;;5.30;99.90;;;;;;5115679;28;19924;-88
2022/03/20 04:29:01;;;;;;;;;;;5.10;99.90;;;;;;5115889;28;19928;-87
2022/03/20 04:31:29;;;;;;;;;;;4.90;99.90;;;;;;5115581;28;20267;-88
2022/03/20 04:33:58;;;;;;;;;;;4.80;99.90;;;;;;5115414;28;19969;-86
2022/03/20 04:36:25;;;;;;;;;;;5.90;99.90;;;;;;5115433;28;19923;-88
2022/03/20 04:38:54;;;;;;;;;;;4.50;99.90;;;;;;5115308;28;19973;-88
2022/03/20 04:41:24;;;;;;;;;;;4.40;99.90;;;;;;5115710;28;19976;-88
2022/03/20 04:43:51;;;;;;;;;;;4.40;99.90;;;;;;5117266;28;20012;-87
2022/03/20 04:46:18;;;;;;;;;;;4.60;99.90;;;;;;5119596;28;19977;-86
2022/03/20 04:59:44;;;;;;;;;;;4.70;99.90;;;;;;5118901;28;20041;-88
2022/03/20 05:02:11;;;;;;;;;;;4.60;99.90;;;;;;5118785;28;20019;-88
2022/03/20 05:04:38;;;;;;;;;;;4.80;99.90;;;;;;5119697;28;19930;-88
2022/03/20 05:07:06;;;;;;;;;;;4.80;99.90;;;;;;5118850;28;19928;-88
2022/03/20 05:15:04;;;;;;;;;;;5.60;99.90;;;;;;5119206;28;19931;-87
2022/03/20 05:17:31;;;;;;;;;;;5.10;99.90;;;;;;5119323;28;19923;-88
2022/03/20 05:19:58;;;;;;;;;;;4.80;99.90;;;;;;5120330;28;19924;-89
2022/03/20 05:22:30;;;;;;;;;;;5.00;99.90;;;;;;5119152;27;20373;-88
2022/03/20 05:24:57;;;;;;;;;;;5.00;99.90;;;;;;5118884;28;19951;-87
2022/03/20 05:27:24;;;;;;;;;;;5.00;99.90;;;;;;5118690;28;19924;-88
2022/03/20 05:29:51;;;;;;;;;;;5.00;99.90;;;;;;5118005;28;20370;-88
2022/03/20 05:32:18;;;;;;;;;;;5.20;99.90;;;;;;5118442;28;19924;-88
2022/03/20 05:34:45;;;;;;;;;;;5.00;99.90;;;;;;5118726;28;19949;-86
2022/03/20 05:37:12;;;;;;;;;;;5.00;99.90;;;;;;5119053;27;19931;-88
2022/03/20 05:39:40;;;;;;;;;;;4.90;99.90;;;;;;5118747;28;19971;-87
2022/03/20 05:42:07;;;;;;;;;;;6.70;99.90;;;;;;5118793;28;20332;-87
2022/03/20 05:44:34;;;;;;;;;;;4.90;99.90;;;;;;5119872;28;19932;-87
2022/03/20 05:47:01;;;;;;;;;;;4.80;99.90;;;;;;5121684;28;20353;-86
2022/03/20 05:49:28;;;;;;;;;;;4.80;99.90;;;;;;5121525;28;19924;-86
2022/03/20 05:51:55;;;;;;;;;;;4.80;99.90;;;;;;5122577;28;20343;-87
2022/03/20 05:54:22;;;;;;;;;;;4.90;99.90;;;;;;5121672;28;19928;-87
2022/03/20 05:59:47;;;;;;;;;;;4.80;99.90;;;;;;5059633;28;19988;-86
2022/03/20 06:02:13;;;;;;;;;;;4.60;99.90;;;;;;5105048;27;19930;-88
2022/03/20 06:04:40;;;;;;;;;;;4.70;99.90;;;;;;5119689;28;19950;-87
2022/03/20 06:07:08;;;;;;;;;;;4.80;99.90;;;;;;5119805;28;19923;-88
2022/03/20 06:09:36;;;;;;;;;;;4.90;99.90;;;;;;5121677;28;19924;-88
2022/03/20 06:12:05;;;;;;;;;;;4.90;99.90;;;;;;5122858;28;19924;-85
2022/03/20 06:14:32;;;;;;;;;;;4.90;99.90;;;;;;5127647;28;19947;-85
2022/03/20 06:17:00;;;;;;;;;;;4.90;99.90;;;;;;5127110;28;19973;-85
2022/03/20 06:19:27;;;;;;;;;;;4.90;99.90;;;;;;5123727;28;20289;-86
2022/03/20 06:21:54;;;;;;;;;;;4.90;99.90;;;;;;5123316;28;19923;-87
2022/03/20 06:24:21;;;;;;;;;;;4.80;99.90;;;;;;5122032;28;19927;-88
2022/03/20 06:26:47;;;;;;;;;;;4.80;99.90;;;;;;5122929;28;19923;-87
2022/03/20 06:29:15;;;;;;;;;;;5.50;99.90;;;;;;5122893;28;19924;-87
2022/03/20 06:31:42;;;;;;;;;;;4.70;99.90;;;;;;5121560;28;19927;-88
2022/03/20 06:34:09;;;;;;;;;;;4.70;99.90;;;;;;5120445;28;19924;-88
2022/03/20 06:36:36;;;;;;;;;;;4.90;99.90;;;;;;5120842;28;19924;-87
2022/03/20 06:39:03;;;;;;;;;;;5.10;99.90;;;;;;5121052;28;19924;-87
2022/03/20 06:41:30;;;;;;;;;;;4.90;99.90;;;;;;5121126;28;19924;-87
2022/03/20 06:43:57;;;;;;;;;;;4.90;99.90;;;;;;5122610;28;19924;-85
2022/03/20 06:46:28;;;;;;;;;;;5.00;99.90;;;;;;5119658;28;19924;-89
2022/03/20 06:48:54;;;;;;;;;;;5.10;99.90;;;;;;5117897;28;19924;-88
2022/03/20 06:51:22;;;;;;;;;;;5.20;99.90;;;;;;5117778;28;19923;-88
2022/03/20 06:53:48;;;;;;;;;;;5.20;99.90;;;;;;5118151;28;20014;-89
2022/03/20 06:56:15;;;;;;;;;;;5.10;99.90;;;;;;5118130;28;19931;-85
2022/03/20 06:58:43;;;;;;;;;;;5.20;99.90;;;;;;5117519;28;19924;-88
2022/03/20 07:01:10;;;;;;;;;;;5.20;99.90;;;;;;5117368;28;19935;-88
2022/03/20 07:03:39;;;;;;;;;;;5.20;99.90;;;;;;5117659;28;20394;-87
2022/03/20 07:06:05;;;;;;;;;;;3.60;99.90;;;;;;5117180;28;20365;-87
2022/03/20 07:08:32;;;;;;;;;;;5.30;99.90;;;;;;5117368;28;19924;-88
2022/03/20 07:10:59;;;;;;;;;;;5.40;99.90;;;;;;5117304;28;19932;-88
2022/03/20 07:16:14;;;;;;;;;;;5.50;99.90;;;;;;5117186;28;19946;-88
2022/03/20 07:18:42;;;;;;;;;;;5.50;99.90;;;;;;5117281;28;19924;-88
2022/03/20 07:21:09;;;;;;;;;;;5.50;99.90;;;;;;5117567;28;19970;-88
2022/03/20 07:23:36;;;;;;;;;;;5.60;99.90;;;;;;5117487;28;19924;-89
2022/03/20 07:31:32;;;;;;;;;;;5.70;99.90;;;;;;5117652;28;19935;-88
2022/03/20 07:34:00;;;;;;;;;;;6.00;99.90;;;;;;5116507;28;19924;-88
2022/03/20 07:36:28;;;;;;;;;;;6.00;99.90;;;;;;5117063;28;20423;-88
2022/03/20 07:38:55;;;;;;;;;;;6.00;99.90;;;;;;5117662;28;20323;-89
2022/03/20 07:41:22;;;;;;;;;;;5.30;99.90;;;;;;5117025;28;19967;-87
2022/03/20 07:43:49;;;;;;;;;;;6.10;99.90;;;;;;5116559;28;20431;-88
2022/03/20 07:46:15;;;;;;;;;;;6.10;99.90;;;;;;5117266;28;19924;-87
2022/03/20 07:48:42;;;;;;;;;;;6.40;99.90;;;;;;5117610;28;19976;-86
2022/03/20 07:51:12;;;;;;;;;;;6.20;99.90;;;;;;5115898;28;20535;-87
2022/03/20 07:53:38;;;;;;;;;;;6.20;99.90;;;;;;5117010;28;20286;-89
2022/03/20 07:56:05;;;;;;;;;;;6.30;99.90;;;;;;5117302;28;19927;-88
2022/03/20 07:58:32;;;;;;;;;;;6.30;99.90;;;;;;5116761;28;19924;-88
2022/03/20 08:00:59;;;;;;;;;;;6.40;99.90;;;;;;5117365;28;19927;-86
2022/03/20 08:03:26;;;;;;;;;;;6.50;99.90;;;;;;5116552;28;19962;-87
2022/03/20 08:05:53;;;;;;;;;;;6.70;99.90;;;;;;5118728;28;20494;-88
2022/03/20 08:08:21;;;;;;;;;;;6.40;99.90;;;;;;5116994;28;20422;-87
2022/03/20 08:10:48;;;;;;;;;;;6.50;99.90;;;;;;5116936;28;19924;-88
2022/03/20 08:13:15;;;;;;;;;;;6.50;99.90;;;;;;5117099;28;19931;-88
2022/03/20 08:15:41;;;;;;;;;;;6.50;99.90;;;;;;5118323;28;19934;-87
2022/03/20 08:18:08;;;;;;;;;;;7.50;99.90;;;;;;5120596;28;19969;-90
2022/03/20 08:20:35;;;;;;;;;;;6.60;99.90;;;;;;5122231;28;19923;-88
2022/03/20 08:23:03;;;;;;;;;;;6.80;99.90;;;;;;5122859;28;19924;-88
2022/03/20 08:25:31;;;;;;;;;;;6.80;99.90;;;;;;5121545;28;19924;-88
2022/03/20 08:27:58;;;;;;;;;;;5.40;99.90;;;;;;5121908;27;19955;-88
2022/03/20 08:30:25;;;;;;;;;;;6.80;99.90;;;;;;5122621;28;19976;-88
2022/03/20 08:32:53;;;;;;;;;;;6.90;99.90;;;;;;5122167;28;19924;-88
2022/03/20 08:35:20;;;;;;;;;;;7.00;99.90;;;;;;5122857;27;19924;-88
2022/03/20 08:37:49;;;;;;;;;;;7.00;99.90;;;;;;5120948;28;19977;-88
2022/03/20 08:40:17;;;;;;;;;;;7.10;99.90;;;;;;5122491;28;19985;-88
2022/03/20 08:42:47;;;;;;;;;;;7.10;99.90;;;;;;5121080;28;19949;-89
2022/03/20 08:45:14;;;;;;;;;;;7.30;99.90;;;;;;5120382;28;19967;-87
2022/03/20 08:47:41;;;;;;;;;;;7.30;99.90;;;;;;5122648;28;19924;-89
2022/03/20 08:50:08;;;;;;;;;;;7.40;99.90;;;;;;5123114;28;19931;-89
2022/03/20 08:52:35;;;;;;;;;;;7.60;99.90;;;;;;5120377;28;19963;-86
2022/03/20 08:55:09;;;;;;;;;;;7.40;99.90;;;;;;5120896;28;19924;-86
2022/03/20 08:57:37;;;;;;;;;;;7.50;99.90;;;;;;5121325;28;20322;-89
2022/03/20 09:00:06;;;;;;;;;;;7.60;99.90;;;;;;5120942;28;19938;-88
2022/03/20 09:02:33;;;;;;;;;;;7.60;99.90;;;;;;5122383;28;19927;-89
2022/03/20 09:05:00;;;;;;;;;;;7.80;99.90;;;;;;5122303;28;19934;-88
2022/03/20 09:07:27;;;;;;;;;;;7.90;99.90;;;;;;5122431;28;19923;-87
2022/03/20 09:09:54;;;;;;;;;;;7.90;99.90;;;;;;5121958;28;19924;-87
2022/03/20 09:12:21;;;;;;;;;;;8.20;99.90;;;;;;5122169;28;19924;-87
2022/03/20 09:14:48;;;;;;;;;;;8.20;99.90;;;;;;5121754;28;19930;-88
2022/03/20 09:20:00;;;;;;;;;;;8.10;99.90;;;;;;5121042;28;19980;-89
2022/03/20 09:22:27;;;;;;;;;;;8.00;99.90;;;;;;5120382;28;20343;-89
2022/03/20 09:24:54;;;;;;;;;;;10.00;99.90;;;;;;5120722;28;20278;-87
2022/03/20 09:27:22;;;;;;;;;;;8.40;99.90;;;;;;5120655;28;19953;-87
2022/03/20 09:29:49;;;;;;;;;;;8.40;99.90;;;;;;5119315;28;19931;-88
2022/03/20 09:32:18;;;;;;;;;;;8.50;99.90;;;;;;5120485;28;19924;-86
2022/03/20 09:34:45;;;;;;;;;;;8.10;99.90;;;;;;5119337;28;20270;-90
2022/03/20 09:37:12;;;;;;;;;;;8.40;99.90;;;;;;5119725;28;19924;-89
2022/03/20 09:39:39;;;;;;;;;;;8.50;99.90;;;;;;5120129;28;20331;-88
2022/03/20 09:42:06;;;;;;;;;;;8.50;99.90;;;;;;5122086;28;19931;-85
2022/03/20 09:44:37;;;;;;;;;;;8.80;99.90;;;;;;5127154;28;19924;-83
2022/03/20 09:47:04;;;;;;;;;;;8.60;99.90;;;;;;5124556;28;19967;-89
2022/03/20 09:49:33;;;;;;;;;;;8.70;99.90;;;;;;5121968;28;19931;-88
2022/03/20 09:52:00;;;;;;;;;;;8.50;99.90;;;;;;5122101;28;19927;-88
2022/03/20 09:54:27;;;;;;;;;;;8.80;99.90;;;;;;5122563;28;20316;-89
2022/03/20 09:56:54;;;;;;;;;;;8.60;99.90;;;;;;5119967;28;19997;-86
2022/03/20 09:59:21;;;;;;;;;;;9.00;99.90;;;;;;5121326;28;19945;-87
2022/03/20 10:01:47;;;;;;;;;;;8.80;99.90;;;;;;5120750;28;19987;-87
2022/03/20 10:04:18;;;;;;;;;;;8.80;99.90;;;;;;5120924;28;19924;-88
2022/03/20 10:06:46;;;;;;;;;;;7.90;99.90;;;;;;5119721;28;19924;-88
2022/03/20 10:09:14;;;;;;;;;;;8.90;99.90;;;;;;5118564;28;19924;-88
2022/03/20 10:11:47;;;;;;;;;;;9.00;99.90;;;;;;5119247;28;20570;-88
2022/03/20 10:14:16;;;;;;;;;;;9.10;99.90;;;;;;5119574;28;20297;-87
2022/03/20 10:16:44;;;;;;;;;;;9.00;99.90;;;;;;5120440;28;19927;-88
2022/03/20 10:19:27;;;;;;;;;;;8.90;99.90;;;;;;5119908;28;20397;-88
2022/03/20 10:21:56;;;;;;;;;;;9.00;99.90;;;;;;5118874;28;20285;-86
2022/03/20 10:24:24;;;;;;;;;;;9.00;99.90;;;;;;5120153;28;19982;-88
2022/03/20 10:26:54;;;;;;;;;;;8.90;99.90;;;;;;5118522;28;19924;-89
2022/03/20 10:29:21;;;;;;;;;;;9.00;99.90;;;;;;5118250;28;19924;-87
2022/03/20 10:31:48;;;;;;;;;;;9.10;99.90;;;;;;5118163;28;19952;-88
2022/03/20 10:34:15;;;;;;;;;;;9.20;99.90;;;;;;5118462;28;20018;-84
2022/03/20 10:36:43;;;;;;;;;;;9.30;99.90;;;;;;5119629;28;19935;-87
2022/03/20 10:39:12;;;;;;;;;;;9.40;99.90;;;;;;5117799;28;19977;-87
2022/03/20 10:41:39;;;;;;;;;;;9.50;99.90;;;;;;5118265;28;20374;-87
2022/03/20 10:44:14;;;;;;;;;;;9.40;99.90;;;;;;5120337;28;19950;-88
2022/03/20 10:46:41;;;;;;;;;;;9.80;99.90;;;;;;5119262;28;19966;-87
2022/03/20 10:49:09;;;;;;;;;;;9.80;99.90;;;;;;5119176;27;19924;-87
2022/03/20 10:51:44;;;;;;;;;;;9.70;99.90;;;;;;5119125;28;20018;-85
2022/03/20 10:54:13;;;;;;;;;;;9.80;99.90;;;;;;5119229;28;20339;-89
2022/03/20 10:56:52;;;;;;;;;;;9.90;99.90;;;;;;5118071;28;19931;-87
2022/03/20 10:59:18;;;;;;;;;;;10.00;99.90;;;;;;5118524;28;19924;-88
2022/03/20 11:01:45;;;;;;;;;;;10.00;99.90;;;;;;5118846;28;19924;-88
2022/03/20 11:04:13;;;;;;;;;;;10.20;99.90;;;;;;5117718;28;20401;-88
2022/03/20 11:06:41;;;;;;;;;;;9.90;99.90;;;;;;5118060;28;19924;-88
2022/03/20 11:09:08;;;;;;;;;;;9.90;99.90;;;;;;5118084;28;19975;-87
2022/03/20 11:11:39;;;;;;;;;;;9.90;99.90;;;;;;5117507;28;19931;-88
2022/03/20 11:14:06;;;;;;;;;;;9.90;99.90;;;;;;5118985;28;19984;-89
2022/03/20 11:16:35;;;;;;;;;;;10.00;99.90;;;;;;5117898;28;19924;-88
2022/03/20 11:19:04;;;;;;;;;;;10.50;99.90;;;;;;5119768;28;19924;-86
2022/03/20 11:21:31;;;;;;;;;;;10.00;99.90;;;;;;5119246;28;19923;-89
2022/03/20 11:23:59;;;;;;;;;;;10.20;99.90;;;;;;5117999;28;19924;-89
2022/03/20 11:26:26;;;;;;;;;;;10.20;99.90;;;;;;5118167;28;19981;-87
2022/03/20 11:29:01;;;;;;;;;;;10.30;99.90;;;;;;5117162;28;19923;-88
2022/03/20 11:31:44;;;;;;;;;;;10.40;99.90;;;;;;5118318;28;19928;-88
2022/03/20 11:34:12;;;;;;;;;;;10.50;99.90;;;;;;5117484;28;19928;-90
2022/03/20 11:36:57;;;;;;;;;;;10.70;99.90;;;;;;5119146;28;19923;-88
2022/03/20 11:39:24;;;;;;;;;;;11.70;99.90;;;;;;5117024;28;19924;-88
2022/03/20 11:42:11;;;;;;;;;;;11.00;99.90;;;;;;5118274;28;19950;-85
2022/03/20 11:44:50;;;;;;;;;;;10.90;99.90;;;;;;5116899;28;20321;-88
2022/03/20 11:47:21;;;;;;;;;;;11.00;98.50;;;;;;5117351;28;20338;-87
2022/03/20 11:50:07;;;;;;;;;;;11.00;98.40;;;;;;5117460;28;20003;-88
2022/03/20 11:52:44;;;;;;;;;;;10.80;98.90;;;;;;5117213;28;19923;-86
2022/03/20 11:55:23;;;;;;;;;;;10.70;98.90;;;;;;5117393;28;20393;-86
2022/03/20 11:57:50;;;;;;;;;;;10.80;98.40;;;;;;5118584;28;19924;-87
2022/03/20 12:00:23;;;;;;;;;;;10.40;99.00;;;;;;5120113;28;19928;-86
2022/03/20 12:02:54;;;;;;;;;;;10.40;98.70;;;;;;5120179;28;22407;-88
2022/03/20 12:05:25;;;;;;;;;;;10.40;97.80;;;;;;5117415;28;19924;-89
2022/03/20 12:07:56;;;;;;;;;;;10.30;98.10;;;;;;5117818;28;20323;-88
2022/03/20 12:10:25;;;;;;;;;;;10.20;98.20;;;;;;5117602;28;19931;-87
2022/03/20 12:12:59;;;;;;;;;;;10.90;98.60;;;;;;5117172;28;19975;-85
2022/03/20 12:15:29;;;;;;;;;;;10.50;97.30;;;;;;5116917;28;19931;-89
2022/03/20 12:18:03;;;;;;;;;;;10.60;96.30;;;;;;5117062;28;19924;-88
2022/03/20 12:20:48;;;;;;;;;;;10.80;96.00;;;;;;5120294;28;20449;-87
2022/03/20 12:23:35;;;;;;;;;;;11.40;96.50;;;;;;5116810;28;20007;-89
2022/03/20 12:26:18;;;;;;;;;;;9.00;96.30;;;;;;5116886;28;19938;-85
2022/03/20 12:28:45;;;;;;;;;;;10.90;96.30;;;;;;5116605;28;19924;-88
2022/03/20 12:31:24;;;;;;;;;;;11.00;96.00;;;;;;5117515;28;20331;-86
2022/03/20 12:34:06;;;;;;;;;;;11.20;96.30;;;;;;5116148;28;19924;-84
2022/03/20 12:36:33;;;;;;;;;;;10.90;96.30;;;;;;5116284;28;19931;-90
2022/03/20 12:39:00;;;;;;;;;;;10.70;96.40;;;;;;5116558;28;19934;-88
2022/03/20 12:41:27;;;;;;;;;;;10.70;98.00;;;;;;5117539;28;19943;-84
2022/03/20 12:43:58;;;;;;;;;;;10.80;96.20;;;;;;5117854;28;19923;-88
2022/03/20 12:46:26;;;;;;;;;;;11.20;96.10;;;;;;5118335;28;19924;-85
2022/03/20 12:48:55;;;;;;;;;;;11.30;96.30;;;;;;5117969;28;19930;-90
2022/03/20 12:51:29;;;;;;;;;;;11.30;95.40;;;;;;5116926;28;19924;-88
2022/03/20 12:53:57;;;;;;;;;;;11.60;94.90;;;;;;5116873;28;19931;-86
2022/03/20 12:56:28;;;;;;;;;;;11.40;94.00;;;;;;5118535;28;20266;-89
2022/03/20 12:58:55;;;;;;;;;;;11.40;93.50;;;;;;5117140;28;19931;-87
2022/03/20 13:01:22;;;;;;;;;;;11.40;95.10;;;;;;5114549;28;19924;-88
2022/03/20 13:03:50;;;;;;;;;;;11.30;94.30;;;;;;5105997;28;19932;-88
2022/03/20 13:06:17;;;;;;;;;;;11.40;94.40;;;;;;5113413;27;19954;-90
2022/03/20 13:08:45;;;;;;;;;;;11.40;94.80;;;;;;5117360;27;20294;-86
2022/03/20 13:13:54;;;;;;;;;;;11.80;94.50;;;;;;5110977;28;19923;-88
2022/03/20 13:16:24;;;;;;;;;;;11.70;93.50;;;;;;5112838;28;20026;-87
2022/03/20 13:18:55;;;;;;;;;;;11.50;93.30;;;;;;5127802;27;19924;-88
2022/03/20 13:21:24;;;;;;;;;;;11.40;93.00;;;;;;5137941;27;19923;-87
2022/03/20 13:23:52;;;;;;;;;;;11.60;94.10;;;;;;5138492;27;19949;-87
2022/03/20 13:26:19;;;;;;;;;;;11.50;94.00;;;;;;5126100;27;19924;-87
2022/03/20 13:28:46;;;;;;;;;;;11.60;93.80;;;;;;5120197;28;19945;-87
2022/03/20 13:31:14;;;;;;;;;;;11.50;93.00;;;;;;5123653;28;19923;-86
2022/03/20 13:33:44;;;;;;;;;;;11.40;92.90;;;;;;5119828;28;19923;-87
2022/03/20 13:36:13;;;;;;;;;;;10.30;93.10;;;;;;5118062;28;19928;-87
2022/03/20 13:38:43;;;;;;;;;;;12.50;94.20;;;;;;5118270;28;19924;-86
2022/03/20 13:41:10;;;;;;;;;;;11.40;93.90;;;;;;5117691;28;19927;-87
2022/03/20 13:43:37;;;;;;;;;;;11.50;94.10;;;;;;5117760;28;19981;-86
2022/03/20 13:46:16;;;;;;;;;;;11.40;93.30;;;;;;5117645;28;19924;-86
2022/03/20 13:48:43;;;;;;;;;;;12.40;93.90;;;;;;5117731;28;19931;-84
2022/03/20 13:51:13;;;;;;;;;;;10.30;93.30;;;;;;5117222;28;19931;-85
2022/03/20 13:53:42;;;;;;;;;;;11.40;93.20;;;;;;5121615;28;19923;-85
2022/03/20 13:56:25;;;;;;;;;;;11.70;93.20;;;;;;5119398;28;19977;-88
2022/03/20 13:59:04;;;;;;;;;;;11.80;92.90;;;;;;5113177;28;19930;-85
2022/03/20 14:01:31;;;;;;;;;;;11.70;92.30;;;;;;5117815;28;19923;-86
2022/03/20 14:04:08;;;;;;;;;;;11.90;93.90;;;;;;5119635;28;19923;-87
2022/03/20 14:06:39;;;;;;;;;;;12.00;92.60;;;;;;5118786;28;19930;-87
2022/03/20 14:09:08;;;;;;;;;;;12.50;92.40;;;;;;5118135;28;19927;-88
2022/03/20 14:11:36;;;;;;;;;;;12.90;93.00;;;;;;5117001;28;19923;-88
2022/03/20 14:14:03;;;;;;;;;;;11.80;92.70;;;;;;5117511;28;19923;-86
2022/03/20 14:16:30;;;;;;;;;;;12.50;93.20;;;;;;5117862;28;20377;-87
2022/03/20 14:18:57;;;;;;;;;;;12.00;92.80;;;;;;5118474;28;19969;-86
2022/03/20 14:21:27;;;;;;;;;;;12.00;92.40;;;;;;5118209;28;19927;-85
2022/03/20 14:23:56;;;;;;;;;;;11.70;91.00;;;;;;5117344;28;20007;-88
2022/03/20 14:26:25;;;;;;;;;;;11.50;91.30;;;;;;5117160;28;19939;-86
2022/03/20 14:29:01;;;;;;;;;;;12.30;92.00;;;;;;5117136;28;19923;-86
2022/03/20 14:39:43;;;;;;;;;;;11.60;91.20;;;;;;5116831;28;19964;-86
2022/03/20 14:42:27;;;;;;;;;;;11.80;92.00;;;;;;5116834;28;19924;-86
2022/03/20 14:44:56;;;;;;;;;;;11.50;91.50;;;;;;5116932;28;19923;-87
2022/03/20 14:47:25;;;;;;;;;;;11.80;92.00;;;;;;5116346;28;20004;-85
2022/03/20 14:49:53;;;;;;;;;;;11.60;91.80;;;;;;5116288;28;19930;-87
2022/03/20 14:52:20;;;;;;;;;;;11.70;91.70;;;;;;5116860;28;20380;-86
2022/03/20 14:54:47;;;;;;;;;;;12.00;92.00;;;;;;5120024;28;19924;-86
2022/03/20 14:57:14;;;;;;;;;;;11.80;90.80;;;;;;5121242;28;19969;-84
2022/03/20 14:59:45;;;;;;;;;;;11.90;90.60;;;;;;5119731;28;19952;-87
2022/03/20 15:02:12;;;;;;;;;;;11.70;90.60;;;;;;5117190;28;19924;-88
2022/03/20 15:04:41;;;;;;;;;;;11.60;90.60;;;;;;5118093;27;19930;-88
2022/03/20 15:07:08;;;;;;;;;;;11.50;90.00;;;;;;5117813;28;20514;-87
2022/03/20 15:12:19;;;;;;;;;;;11.70;90.60;;;;;;5116195;28;19930;-86
2022/03/20 15:14:50;;;;;;;;;;;11.80;90.50;;;;;;5116192;28;20349;-86
2022/03/20 15:17:17;;;;;;;;;;;11.80;90.10;;;;;;5117164;28;19923;-87
2022/03/20 15:19:46;;;;;;;;;;;11.70;89.50;;;;;;5115921;28;19978;-85
2022/03/20 15:22:16;;;;;;;;;;;11.00;89.50;;;;;;5116987;28;20425;-87
2022/03/20 15:24:43;;;;;;;;;;;12.10;89.50;;;;;;5117046;28;19931;-86